sensor_id;sensor_type;location;lat;lon;timestamp;pressure;altitude;pressure_sealevel;temperature;humidity
21753;BME280;11038;50.940;20.564;2022-07-21T00:00:57;98201.34;;;19.72;67.69
21753;BME280;11038;50.940;20.564;2022-07-21T00:02:29;98204.50;;;19.69;67.94
21753;BME280;11038;50.940;20.564;2022-07-21T00:04:02;98206.34;;;19.75;67.65
21753;BME280;11038;50.940;20.564;2022-07-21T00:05:34;98205.09;;;19.71;68.01
21753;BME280;11038;50.940;20.564;2022-07-21T00:07:06;98201.56;;;19.71;68.26
21753;BME280;11038;50.940;20.564;2022-07-21T00:08:38;98204.94;;;19.66;68.72
21753;BME280;11038;50.940;20.564;2022-07-21T00:10:11;98201.19;;;19.67;68.43
21753;BME280;11038;50.940;20.564;2022-07-21T00:11:44;98203.25;;;19.65;68.39
21753;BME280;11038;50.940;20.564;2022-07-21T00:13:16;98198.25;;;19.62;68.56
21753;BME280;11038;50.940;20.564;2022-07-21T00:14:48;98193.91;;;19.61;68.81
21753;BME280;11038;50.940;20.564;2022-07-21T00:16:20;98203.69;;;19.62;68.80
21753;BME280;11038;50.940;20.564;2022-07-21T00:17:55;98202.25;;;19.59;68.82
21753;BME280;11038;50.940;20.564;2022-07-21T00:19:28;98201.44;;;19.58;68.89
21753;BME280;11038;50.940;20.564;2022-07-21T00:21:01;98204.16;;;19.58;69.06
21753;BME280;11038;50.940;20.564;2022-07-21T00:22:34;98201.03;;;19.55;69.47
21753;BME280;11038;50.940;20.564;2022-07-21T00:24:06;98202.53;;;19.51;69.62
21753;BME280;11038;50.940;20.564;2022-07-21T00:25:38;98196.72;;;19.47;69.69
21753;BME280;11038;50.940;20.564;2022-07-21T00:27:10;98206.03;;;19.51;69.60
21753;BME280;11038;50.940;20.564;2022-07-21T00:28:43;98206.28;;;19.50;69.85
21753;BME280;11038;50.940;20.564;2022-07-21T00:30:15;98207.53;;;19.47;69.89
21753;BME280;11038;50.940;20.564;2022-07-21T00:31:47;98210.06;;;19.42;70.25
21753;BME280;11038;50.940;20.564;2022-07-21T00:33:19;98213.81;;;19.41;70.14
21753;BME280;11038;50.940;20.564;2022-07-21T00:34:52;98215.50;;;19.42;70.19
21753;BME280;11038;50.940;20.564;2022-07-21T00:36:24;98213.22;;;19.39;70.42
21753;BME280;11038;50.940;20.564;2022-07-21T00:37:56;98214.47;;;19.36;70.57
21753;BME280;11038;50.940;20.564;2022-07-21T00:39:28;98221.16;;;19.33;71.08
21753;BME280;11038;50.940;20.564;2022-07-21T00:41:01;98220.56;;;19.31;71.14
21753;BME280;11038;50.940;20.564;2022-07-21T00:42:33;98218.69;;;19.25;71.54
21753;BME280;11038;50.940;20.564;2022-07-21T00:44:06;98225.56;;;19.28;71.54
21753;BME280;11038;50.940;20.564;2022-07-21T00:45:38;98229.97;;;19.22;71.69
21753;BME280;11038;50.940;20.564;2022-07-21T00:47:10;98224.97;;;19.19;72.00
21753;BME280;11038;50.940;20.564;2022-07-21T00:48:42;98228.72;;;19.18;72.01
21753;BME280;11038;50.940;20.564;2022-07-21T00:50:17;98222.25;;;19.19;71.70
21753;BME280;11038;50.940;20.564;2022-07-21T00:51:51;98224.53;;;19.22;71.90
21753;BME280;11038;50.940;20.564;2022-07-21T00:53:23;98221.00;;;19.14;71.79
21753;BME280;11038;50.940;20.564;2022-07-21T00:54:55;98222.88;;;19.14;72.05
21753;BME280;11038;50.940;20.564;2022-07-21T00:56:27;98229.13;;;19.14;72.05
21753;BME280;11038;50.940;20.564;2022-07-21T00:58:00;98219.75;;;19.17;71.95
21753;BME280;11038;50.940;20.564;2022-07-21T00:59:32;98225.38;;;19.16;71.83
21753;BME280;11038;50.940;20.564;2022-07-21T01:01:04;98224.34;;;19.10;71.85
21753;BME280;11038;50.940;20.564;2022-07-21T01:02:37;98230.59;;;19.10;71.87
21753;BME280;11038;50.940;20.564;2022-07-21T01:04:09;98226.00;;;19.11;72.10
21753;BME280;11038;50.940;20.564;2022-07-21T01:05:41;98227.69;;;19.05;72.18
21753;BME280;11038;50.940;20.564;2022-07-21T01:07:14;98229.38;;;19.06;72.31
21753;BME280;11038;50.940;20.564;2022-07-21T01:08:47;98225.22;;;19.03;72.42
21753;BME280;11038;50.940;20.564;2022-07-21T01:10:23;98225.22;;;19.03;72.61
21753;BME280;11038;50.940;20.564;2022-07-21T01:11:56;98219.63;;;18.98;72.59
21753;BME280;11038;50.940;20.564;2022-07-21T01:13:29;98228.34;;;19.00;72.63
21753;BME280;11038;50.940;20.564;2022-07-21T01:15:02;98228.75;;;19.04;72.88
21753;BME280;11038;50.940;20.564;2022-07-21T01:16:35;98230.22;;;19.00;72.73
21753;BME280;11038;50.940;20.564;2022-07-21T01:18:08;98230.22;;;19.00;73.18
21753;BME280;11038;50.940;20.564;2022-07-21T01:19:41;98234.00;;;18.92;73.39
21753;BME280;11038;50.940;20.564;2022-07-21T01:21:30;98226.50;;;18.94;73.47
21753;BME280;11038;50.940;20.564;2022-07-21T01:23:03;98235.63;;;19.00;73.36
21753;BME280;11038;50.940;20.564;2022-07-21T01:24:36;98233.34;;;19.03;73.24
21753;BME280;11038;50.940;20.564;2022-07-21T01:26:08;98235.81;;;19.05;73.20
21753;BME280;11038;50.940;20.564;2022-07-21T01:27:40;98236.88;;;19.04;73.19
21753;BME280;11038;50.940;20.564;2022-07-21T01:29:14;98235.63;;;19.07;73.30
21753;BME280;11038;50.940;20.564;2022-07-21T01:30:46;98239.13;;;19.07;73.25
21753;BME280;11038;50.940;20.564;2022-07-21T01:32:19;98241.00;;;19.13;73.10
21753;BME280;11038;50.940;20.564;2022-07-21T01:33:51;98244.31;;;19.16;72.91
21753;BME280;11038;50.940;20.564;2022-07-21T01:35:23;98236.41;;;19.14;72.63
21753;BME280;11038;50.940;20.564;2022-07-21T01:36:55;98244.97;;;19.18;72.65
21753;BME280;11038;50.940;20.564;2022-07-21T01:38:27;98242.03;;;19.12;72.55
21753;BME280;11038;50.940;20.564;2022-07-21T01:40:19;98239.19;;;19.00;73.38
21753;BME280;11038;50.940;20.564;2022-07-21T01:42:11;98234.22;;;18.90;73.80
21753;BME280;11038;50.940;20.564;2022-07-21T01:43:43;98232.56;;;18.83;74.06
21753;BME280;11038;50.940;20.564;2022-07-21T01:45:15;98238.63;;;18.78;74.59
21753;BME280;11038;50.940;20.564;2022-07-21T01:46:49;98229.03;;;18.75;74.93
21753;BME280;11038;50.940;20.564;2022-07-21T01:48:22;98230.53;;;18.71;75.08
21753;BME280;11038;50.940;20.564;2022-07-21T01:49:54;98233.66;;;18.68;75.29
21753;BME280;11038;50.940;20.564;2022-07-21T01:51:26;98240.31;;;18.65;75.47
21753;BME280;11038;50.940;20.564;2022-07-21T01:53:00;98230.94;;;18.61;75.65
21753;BME280;11038;50.940;20.564;2022-07-21T01:54:32;98231.59;;;18.56;76.08
21753;BME280;11038;50.940;20.564;2022-07-21T01:56:05;98227.84;;;18.51;76.57
21753;BME280;11038;50.940;20.564;2022-07-21T01:57:37;98235.75;;;18.45;76.84
21753;BME280;11038;50.940;20.564;2022-07-21T01:59:09;98234.09;;;18.44;76.95
21753;BME280;11038;50.940;20.564;2022-07-21T02:00:42;98237.22;;;18.34;77.39
21753;BME280;11038;50.940;20.564;2022-07-21T02:02:14;98239.50;;;18.38;77.49
21753;BME280;11038;50.940;20.564;2022-07-21T02:03:47;98238.91;;;18.35;77.77
21753;BME280;11038;50.940;20.564;2022-07-21T02:05:20;98239.50;;;18.31;77.79
21753;BME280;11038;50.940;20.564;2022-07-21T02:06:52;98234.31;;;18.36;77.93
21753;BME280;11038;50.940;20.564;2022-07-21T02:08:26;98239.09;;;18.41;77.53
21753;BME280;11038;50.940;20.564;2022-07-21T02:09:58;98236.38;;;18.47;77.44
21753;BME280;11038;50.940;20.564;2022-07-21T02:11:30;98234.72;;;18.46;77.46
21753;BME280;11038;50.940;20.564;2022-07-21T02:13:02;98235.97;;;18.51;77.24
21753;BME280;11038;50.940;20.564;2022-07-21T02:14:35;98238.88;;;18.56;77.32
21753;BME280;11038;50.940;20.564;2022-07-21T02:16:08;98239.28;;;18.59;77.01
21753;BME280;11038;50.940;20.564;2022-07-21T02:17:41;98239.06;;;18.61;76.75
21753;BME280;11038;50.940;20.564;2022-07-21T02:19:13;98239.06;;;18.61;76.58
21753;BME280;11038;50.940;20.564;2022-07-21T02:20:46;98243.22;;;18.64;76.64
21753;BME280;11038;50.940;20.564;2022-07-21T02:22:19;98232.19;;;18.65;76.29
21753;BME280;11038;50.940;20.564;2022-07-21T02:23:52;98232.19;;;18.65;76.16
21753;BME280;11038;50.940;20.564;2022-07-21T02:25:24;98224.69;;;18.61;76.34
21753;BME280;11038;50.940;20.564;2022-07-21T02:26:57;98226.81;;;18.52;76.56
21753;BME280;11038;50.940;20.564;2022-07-21T02:28:29;98222.44;;;18.51;76.57
21753;BME280;11038;50.940;20.564;2022-07-21T02:30:02;98224.09;;;18.52;76.63
21753;BME280;11038;50.940;20.564;2022-07-21T02:31:35;98223.69;;;18.55;76.55
21753;BME280;11038;50.940;20.564;2022-07-21T02:33:07;98221.19;;;18.53;76.57
21753;BME280;11038;50.940;20.564;2022-07-21T02:34:39;98224.09;;;18.52;76.56
21753;BME280;11038;50.940;20.564;2022-07-21T02:36:12;98217.44;;;18.47;76.72
21753;BME280;11038;50.940;20.564;2022-07-21T02:37:44;98221.81;;;18.48;76.81
21753;BME280;11038;50.940;20.564;2022-07-21T02:39:16;98218.50;;;18.46;76.79
21753;BME280;11038;50.940;20.564;2022-07-21T02:40:48;98221.22;;;18.46;76.75
21753;BME280;11038;50.940;20.564;2022-07-21T02:42:28;98208.28;;;18.42;77.07
21753;BME280;11038;50.940;20.564;2022-07-21T02:44:00;98216.19;;;18.36;77.38
21753;BME280;11038;50.940;20.564;2022-07-21T02:45:33;98209.56;;;18.32;77.59
21753;BME280;11038;50.940;20.564;2022-07-21T02:47:06;98219.53;;;18.25;78.10
21753;BME280;11038;50.940;20.564;2022-07-21T02:48:38;98213.28;;;18.18;78.57
21753;BME280;11038;50.940;20.564;2022-07-21T02:50:10;98214.53;;;18.08;79.17
21753;BME280;11038;50.940;20.564;2022-07-21T02:51:43;98220.78;;;18.02;79.75
21753;BME280;11038;50.940;20.564;2022-07-21T02:53:18;98229.91;;;17.94;79.92
21753;BME280;11038;50.940;20.564;2022-07-21T02:54:51;98222.00;;;17.86;80.61
21753;BME280;11038;50.940;20.564;2022-07-21T02:56:23;98235.72;;;17.77;81.10
21753;BME280;11038;50.940;20.564;2022-07-21T02:58:13;98228.81;;;17.68;81.89
21753;BME280;11038;50.940;20.564;2022-07-21T02:59:46;98219.47;;;17.70;82.02
21753;BME280;11038;50.940;20.564;2022-07-21T03:01:18;98224.88;;;17.64;82.39
21753;BME280;11038;50.940;20.564;2022-07-21T03:02:51;98224.84;;;17.57;82.78
21753;BME280;11038;50.940;20.564;2022-07-21T03:04:23;98227.16;;;17.53;83.19
21753;BME280;11038;50.940;20.564;2022-07-21T03:05:56;98224.00;;;17.50;83.37
21753;BME280;11038;50.940;20.564;2022-07-21T03:07:28;98224.44;;;17.53;83.47
21753;BME280;11038;50.940;20.564;2022-07-21T03:09:01;98222.16;;;17.50;83.72
21753;BME280;11038;50.940;20.564;2022-07-21T03:10:34;98225.69;;;17.51;83.72
21753;BME280;11038;50.940;20.564;2022-07-21T03:12:06;98216.75;;;17.50;83.97
21753;BME280;11038;50.940;20.564;2022-07-21T03:13:39;98221.75;;;17.53;83.78
21753;BME280;11038;50.940;20.564;2022-07-21T03:15:11;98224.84;;;17.57;83.61
21753;BME280;11038;50.940;20.564;2022-07-21T03:16:43;98226.97;;;17.62;83.29
21753;BME280;11038;50.940;20.564;2022-07-21T03:18:15;98227.59;;;17.70;83.16
21753;BME280;11038;50.940;20.564;2022-07-21T03:19:47;98230.09;;;17.79;82.52
21753;BME280;11038;50.940;20.564;2022-07-21T03:21:20;98232.41;;;17.89;81.92
21753;BME280;11038;50.940;20.564;2022-07-21T03:22:53;98220.34;;;17.91;81.08
21753;BME280;11038;50.940;20.564;2022-07-21T03:24:25;98229.06;;;18.00;80.85
21753;BME280;11038;50.940;20.564;2022-07-21T03:25:57;98221.19;;;18.06;80.68
21753;BME280;11038;50.940;20.564;2022-07-21T03:27:30;98224.09;;;18.11;80.32
21753;BME280;11038;50.940;20.564;2022-07-21T03:29:02;98224.09;;;18.18;80.14
21753;BME280;11038;50.940;20.564;2022-07-21T03:30:34;98219.53;;;18.25;79.80
21753;BME280;11038;50.940;20.564;2022-07-21T03:32:07;98221.22;;;18.33;79.38
21753;BME280;11038;50.940;20.564;2022-07-21T03:33:39;98223.47;;;18.36;79.07
21753;BME280;11038;50.940;20.564;2022-07-21T03:35:12;98221.63;;;18.43;78.34
21753;BME280;11038;50.940;20.564;2022-07-21T03:36:45;98226.16;;;18.50;77.61
21753;BME280;11038;50.940;20.564;2022-07-21T03:38:17;98220.72;;;18.63;77.02
21753;BME280;11038;50.940;20.564;2022-07-21T03:39:49;98213.03;;;18.74;76.33
21753;BME280;11038;50.940;20.564;2022-07-21T03:41:21;98223.41;;;18.84;75.76
21753;BME280;11038;50.940;20.564;2022-07-21T03:42:55;98224.38;;;18.96;75.11
21753;BME280;11038;50.940;20.564;2022-07-21T03:44:27;98222.91;;;19.07;73.89
21753;BME280;11038;50.940;20.564;2022-07-21T03:46:00;98215.81;;;19.20;73.36
21753;BME280;11038;50.940;20.564;2022-07-21T03:47:32;98223.25;;;19.31;72.81
21753;BME280;11038;50.940;20.564;2022-07-21T03:49:04;98224.22;;;19.44;72.30
21753;BME280;11038;50.940;20.564;2022-07-21T03:50:39;98224.59;;;19.54;71.60
21753;BME280;11038;50.940;20.564;2022-07-21T03:52:12;98229.53;;;19.64;71.11
21753;BME280;11038;50.940;20.564;2022-07-21T03:53:44;98224.81;;;19.85;70.45
21753;BME280;11038;50.940;20.564;2022-07-21T03:55:16;98228.97;;;19.88;69.89
21753;BME280;11038;50.940;20.564;2022-07-21T03:56:51;98229.97;;;19.94;68.93
21753;BME280;11038;50.940;20.564;2022-07-21T03:58:23;98231.75;;;20.07;68.58
21753;BME280;11038;50.940;20.564;2022-07-21T03:59:55;98230.81;;;20.20;68.46
21753;BME280;11038;50.940;20.564;2022-07-21T04:01:29;98230.44;;;20.42;67.59
21753;BME280;11038;50.940;20.564;2022-07-21T04:03:01;98231.38;;;20.29;67.17
21753;BME280;11038;50.940;20.564;2022-07-21T04:04:34;98234.75;;;20.50;66.98
21753;BME280;11038;50.940;20.564;2022-07-21T04:06:07;98233.66;;;20.76;66.47
21753;BME280;11038;50.940;20.564;2022-07-21T04:07:43;98234.31;;;20.90;64.72
21753;BME280;11038;50.940;20.564;2022-07-21T04:09:16;98228.69;;;20.92;64.22
21753;BME280;11038;50.940;20.564;2022-07-21T04:10:50;98228.16;;;21.02;63.81
21753;BME280;11038;50.940;20.564;2022-07-21T04:12:26;98219.34;;;21.07;62.98
21753;BME280;11038;50.940;20.564;2022-07-21T04:13:59;98223.31;;;21.04;62.73
21753;BME280;11038;50.940;20.564;2022-07-21T04:15:31;98223.97;;;21.06;63.25
21753;BME280;11038;50.940;20.564;2022-07-21T04:17:04;98222.94;;;21.00;62.76
21753;BME280;11038;50.940;20.564;2022-07-21T04:18:36;98222.72;;;20.83;63.06
21753;BME280;11038;50.940;20.564;2022-07-21T04:20:09;98227.69;;;20.86;63.66
21753;BME280;11038;50.940;20.564;2022-07-21T04:21:42;98229.44;;;20.80;64.34
21753;BME280;11038;50.940;20.564;2022-07-21T04:23:14;98223.53;;;20.84;64.56
21753;BME280;11038;50.940;20.564;2022-07-21T04:24:46;98224.69;;;20.95;64.54
21753;BME280;11038;50.940;20.564;2022-07-21T04:26:19;98227.69;;;20.86;64.35
21753;BME280;11038;50.940;20.564;2022-07-21T04:27:51;98229.97;;;21.08;64.46
21753;BME280;11038;50.940;20.564;2022-07-21T04:29:23;98231.47;;;21.04;63.95
21753;BME280;11038;50.940;20.564;2022-07-21T04:30:56;98229.22;;;21.01;63.29
21753;BME280;11038;50.940;20.564;2022-07-21T04:32:28;98229.38;;;21.06;64.00
21753;BME280;11038;50.940;20.564;2022-07-21T04:34:00;98231.63;;;21.28;64.28
21753;BME280;11038;50.940;20.564;2022-07-21T04:35:33;98222.13;;;21.19;63.50
21753;BME280;11038;50.940;20.564;2022-07-21T04:37:05;98221.84;;;21.08;63.44
21753;BME280;11038;50.940;20.564;2022-07-21T04:38:38;98214.97;;;21.06;62.98
21753;BME280;11038;50.940;20.564;2022-07-21T04:40:12;98221.16;;;21.13;64.04
21753;BME280;11038;50.940;20.564;2022-07-21T04:41:44;98216.63;;;21.26;62.75
21753;BME280;11038;50.940;20.564;2022-07-21T04:43:17;98219.69;;;21.29;62.39
21753;BME280;11038;50.940;20.564;2022-07-21T04:44:49;98213.50;;;21.22;61.70
21753;BME280;11038;50.940;20.564;2022-07-21T04:46:22;98218.91;;;21.41;61.38
21753;BME280;11038;50.940;20.564;2022-07-21T04:47:55;98217.88;;;21.54;61.45
21753;BME280;11038;50.940;20.564;2022-07-21T04:49:27;98216.47;;;21.51;61.18
21753;BME280;11038;50.940;20.564;2022-07-21T04:50:59;98210.75;;;21.41;60.04
21753;BME280;11038;50.940;20.564;2022-07-21T04:52:31;98217.47;;;21.38;59.89
21753;BME280;11038;50.940;20.564;2022-07-21T04:54:04;98221.91;;;21.51;60.49
21753;BME280;11038;50.940;20.564;2022-07-21T04:55:36;98212.59;;;21.59;60.81
21753;BME280;11038;50.940;20.564;2022-07-21T04:57:09;98218.84;;;21.60;59.92
21753;BME280;11038;50.940;20.564;2022-07-21T04:58:41;98213.84;;;21.44;60.22
21753;BME280;11038;50.940;20.564;2022-07-21T05:00:16;98205.59;;;21.51;59.49
21753;BME280;11038;50.940;20.564;2022-07-21T05:01:49;98207.59;;;21.44;59.73
21753;BME280;11038;50.940;20.564;2022-07-21T05:03:21;98202.09;;;21.63;59.83
21753;BME280;11038;50.940;20.564;2022-07-21T05:04:53;98207.41;;;21.57;60.40
21753;BME280;11038;50.940;20.564;2022-07-21T05:06:26;98207.91;;;21.35;59.41
21753;BME280;11038;50.940;20.564;2022-07-21T05:07:58;98201.44;;;21.49;59.47
21753;BME280;11038;50.940;20.564;2022-07-21T05:09:30;98197.03;;;21.35;59.43
21753;BME280;11038;50.940;20.564;2022-07-21T05:11:03;98202.59;;;21.41;59.15
21753;BME280;11038;50.940;20.564;2022-07-21T05:12:35;98183.50;;;21.48;59.95
21753;BME280;11038;50.940;20.564;2022-07-21T05:14:09;98187.78;;;21.55;58.67
21753;BME280;11038;50.940;20.564;2022-07-21T05:15:46;98185.00;;;21.43;59.05
21753;BME280;11038;50.940;20.564;2022-07-21T05:17:18;98176.03;;;21.43;58.24
21753;BME280;11038;50.940;20.564;2022-07-21T05:18:50;98190.38;;;21.50;59.43
21753;BME280;11038;50.940;20.564;2022-07-21T05:20:23;98187.16;;;21.53;59.21
21753;BME280;11038;50.940;20.564;2022-07-21T05:21:55;98187.66;;;21.50;58.90
21753;BME280;11038;50.940;20.564;2022-07-21T05:23:27;98190.75;;;21.66;58.38
21753;BME280;11038;50.940;20.564;2022-07-21T05:25:00;98195.47;;;21.59;57.73
21753;BME280;11038;50.940;20.564;2022-07-21T05:26:32;98190.97;;;21.52;58.00
21753;BME280;11038;50.940;20.564;2022-07-21T05:28:07;98197.34;;;21.58;59.19
21753;BME280;11038;50.940;20.564;2022-07-21T05:29:39;98197.31;;;21.46;58.63
21753;BME280;11038;50.940;20.564;2022-07-21T05:31:12;98197.09;;;21.48;59.37
21753;BME280;11038;50.940;20.564;2022-07-21T05:32:44;98202.09;;;21.63;59.10
21753;BME280;11038;50.940;20.564;2022-07-21T05:34:19;98211.63;;;21.53;59.32
21753;BME280;11038;50.940;20.564;2022-07-21T05:35:52;98214.72;;;21.57;58.14
21753;BME280;11038;50.940;20.564;2022-07-21T05:37:24;98210.06;;;21.45;58.43
21753;BME280;11038;50.940;20.564;2022-07-21T05:38:57;98220.59;;;21.54;58.82
21753;BME280;11038;50.940;20.564;2022-07-21T05:40:29;98216.91;;;21.48;58.32
21753;BME280;11038;50.940;20.564;2022-07-21T05:42:02;98216.44;;;21.39;58.49
21753;BME280;11038;50.940;20.564;2022-07-21T05:43:34;98218.72;;;21.54;59.03
21753;BME280;11038;50.940;20.564;2022-07-21T05:45:07;98220.72;;;21.47;58.01
21753;BME280;11038;50.940;20.564;2022-07-21T05:46:39;98217.34;;;21.64;59.58
21753;BME280;11038;50.940;20.564;2022-07-21T05:48:12;98221.97;;;21.75;58.05
21753;BME280;11038;50.940;20.564;2022-07-21T05:49:44;98222.72;;;21.83;56.91
21753;BME280;11038;50.940;20.564;2022-07-21T05:51:16;98229.06;;;21.76;57.82
21753;BME280;11038;50.940;20.564;2022-07-21T05:52:50;98224.69;;;21.94;58.08
21753;BME280;11038;50.940;20.564;2022-07-21T05:54:22;98226.63;;;21.87;55.39
21753;BME280;11038;50.940;20.564;2022-07-21T05:55:55;98236.91;;;21.85;56.43
21753;BME280;11038;50.940;20.564;2022-07-21T05:57:27;98233.06;;;21.93;56.50
21753;BME280;11038;50.940;20.564;2022-07-21T05:58:59;98231.31;;;22.10;57.25
21753;BME280;11038;50.940;20.564;2022-07-21T06:00:31;98230.59;;;22.15;56.28
21753;BME280;11038;50.940;20.564;2022-07-21T06:02:03;98236.06;;;22.27;56.40
21753;BME280;11038;50.940;20.564;2022-07-21T06:03:40;98230.94;;;22.07;56.93
21753;BME280;11038;50.940;20.564;2022-07-21T06:05:14;98227.25;;;21.58;55.04
21753;BME280;11038;50.940;20.564;2022-07-21T06:06:48;98228.16;;;21.52;55.72
21753;BME280;11038;50.940;20.564;2022-07-21T06:08:20;98225.50;;;21.64;56.09
21753;BME280;11038;50.940;20.564;2022-07-21T06:09:53;98223.38;;;21.66;56.00
21753;BME280;11038;50.940;20.564;2022-07-21T06:11:25;98223.25;;;22.04;55.07
21753;BME280;11038;50.940;20.564;2022-07-21T06:13:03;98211.06;;;21.94;54.74
21753;BME280;11038;50.940;20.564;2022-07-21T06:14:35;98219.34;;;22.11;54.75
21753;BME280;11038;50.940;20.564;2022-07-21T06:16:08;98214.91;;;22.29;55.00
21753;BME280;11038;50.940;20.564;2022-07-21T06:17:45;98214.28;;;22.15;54.74
21753;BME280;11038;50.940;20.564;2022-07-21T06:19:17;98226.13;;;22.21;53.89
21753;BME280;11038;50.940;20.564;2022-07-21T06:20:50;98223.28;;;22.52;54.44
21753;BME280;11038;50.940;20.564;2022-07-21T06:22:22;98220.69;;;22.57;55.05
21753;BME280;11038;50.940;20.564;2022-07-21T06:23:54;98222.34;;;22.82;54.92
21753;BME280;11038;50.940;20.564;2022-07-21T06:25:29;98226.25;;;22.74;53.68
21753;BME280;11038;50.940;20.564;2022-07-21T06:27:02;98230.75;;;22.44;54.00
21753;BME280;11038;50.940;20.564;2022-07-21T06:28:37;98220.94;;;22.43;54.17
21753;BME280;11038;50.940;20.564;2022-07-21T06:30:10;98223.28;;;22.52;53.78
21753;BME280;11038;50.940;20.564;2022-07-21T06:31:42;98236.63;;;22.65;54.38
21753;BME280;11038;50.940;20.564;2022-07-21T06:33:15;98235.81;;;22.05;53.83
21753;BME280;11038;50.940;20.564;2022-07-21T06:34:47;98243.97;;;22.41;53.88
21753;BME280;11038;50.940;20.564;2022-07-21T06:36:20;98249.09;;;22.37;53.73
21753;BME280;11038;50.940;20.564;2022-07-21T06:37:52;98247.41;;;22.12;53.92
21753;BME280;11038;50.940;20.564;2022-07-21T06:39:25;98245.88;;;22.28;54.42
21753;BME280;11038;50.940;20.564;2022-07-21T06:40:57;98252.63;;;22.50;52.50
21753;BME280;11038;50.940;20.564;2022-07-21T06:42:30;98252.28;;;22.70;53.29
21753;BME280;11038;50.940;20.564;2022-07-21T06:44:02;98259.97;;;22.85;54.55
21753;BME280;11038;50.940;20.564;2022-07-21T06:45:37;98258.47;;;22.77;52.95
21753;BME280;11038;50.940;20.564;2022-07-21T06:47:10;98265.44;;;22.85;53.80
21753;BME280;11038;50.940;20.564;2022-07-21T06:48:42;98271.22;;;22.53;53.08
21753;BME280;11038;50.940;20.564;2022-07-21T06:50:14;98270.38;;;22.52;52.81
21753;BME280;11038;50.940;20.564;2022-07-21T06:51:47;98276.66;;;22.53;53.88
21753;BME280;11038;50.940;20.564;2022-07-21T06:53:20;98282.09;;;22.53;53.27
21753;BME280;11038;50.940;20.564;2022-07-21T06:54:52;98283.44;;;22.62;52.81
21753;BME280;11038;50.940;20.564;2022-07-21T06:56:24;98285.66;;;22.53;53.47
21753;BME280;11038;50.940;20.564;2022-07-21T06:57:57;98274.19;;;23.11;52.49
21753;BME280;11038;50.940;20.564;2022-07-21T06:59:29;98281.56;;;23.40;51.60
21753;BME280;11038;50.940;20.564;2022-07-21T07:01:01;98278.56;;;23.83;50.01
21753;BME280;11038;50.940;20.564;2022-07-21T07:02:34;98271.72;;;23.98;49.92
21753;BME280;11038;50.940;20.564;2022-07-21T07:04:06;98274.31;;;24.22;51.73
21753;BME280;11038;50.940;20.564;2022-07-21T07:05:39;98272.78;;;23.97;50.67
21753;BME280;11038;50.940;20.564;2022-07-21T07:07:12;98276.44;;;24.32;49.84
21753;BME280;11038;50.940;20.564;2022-07-21T07:08:44;98277.50;;;24.48;51.42
21753;BME280;11038;50.940;20.564;2022-07-21T07:10:16;98279.81;;;24.39;50.29
21753;BME280;11038;50.940;20.564;2022-07-21T07:11:49;98275.59;;;24.31;48.96
21753;BME280;11038;50.940;20.564;2022-07-21T07:13:44;98283.53;;;24.68;49.40
21753;BME280;11038;50.940;20.564;2022-07-21T07:15:36;98282.91;;;23.96;49.76
21753;BME280;11038;50.940;20.564;2022-07-21T07:17:08;98281.59;;;24.16;50.44
21753;BME280;11038;50.940;20.564;2022-07-21T07:18:41;98279.13;;;24.49;49.92
21753;BME280;11038;50.940;20.564;2022-07-21T07:20:13;98284.84;;;23.84;50.13
21753;BME280;11038;50.940;20.564;2022-07-21T07:21:45;98282.69;;;24.15;51.42
21753;BME280;11038;50.940;20.564;2022-07-21T07:23:17;98284.22;;;24.11;49.50
21753;BME280;11038;50.940;20.564;2022-07-21T07:24:50;98289.75;;;24.28;51.06
21753;BME280;11038;50.940;20.564;2022-07-21T07:26:22;98286.41;;;24.43;51.37
21753;BME280;11038;50.940;20.564;2022-07-21T07:27:54;98287.09;;;24.51;48.05
21753;BME280;11038;50.940;20.564;2022-07-21T07:29:28;98281.03;;;24.49;48.58
21753;BME280;11038;50.940;20.564;2022-07-21T07:31:01;98275.75;;;24.59;48.72
21753;BME280;11038;50.940;20.564;2022-07-21T07:32:33;98270.66;;;24.85;49.74
21753;BME280;11038;50.940;20.564;2022-07-21T07:34:05;98265.97;;;24.63;50.19
21753;BME280;11038;50.940;20.564;2022-07-21T07:35:38;98264.78;;;24.76;50.24
21753;BME280;11038;50.940;20.564;2022-07-21T07:37:10;98265.88;;;24.98;48.60
21753;BME280;11038;50.940;20.564;2022-07-21T07:38:42;98256.16;;;24.85;48.48
21753;BME280;11038;50.940;20.564;2022-07-21T07:40:18;98263.44;;;24.79;49.54
21753;BME280;11038;50.940;20.564;2022-07-21T07:41:50;98263.53;;;24.84;49.11
21753;BME280;11038;50.940;20.564;2022-07-21T07:43:22;98251.25;;;25.04;47.12
21753;BME280;11038;50.940;20.564;2022-07-21T07:44:55;98250.25;;;25.33;47.54
21753;BME280;11038;50.940;20.564;2022-07-21T07:46:27;98254.66;;;25.39;45.95
21753;BME280;11038;50.940;20.564;2022-07-21T07:47:59;98250.84;;;25.63;45.85
21753;BME280;11038;50.940;20.564;2022-07-21T07:49:32;98249.88;;;25.74;46.86
21753;BME280;11038;50.940;20.564;2022-07-21T07:51:04;98253.50;;;25.58;47.33
21753;BME280;11038;50.940;20.564;2022-07-21T07:52:37;98257.88;;;25.81;44.64
21753;BME280;11038;50.940;20.564;2022-07-21T07:54:09;98252.63;;;25.74;46.43
21753;BME280;11038;50.940;20.564;2022-07-21T07:55:41;98257.13;;;25.91;44.49
21753;BME280;11038;50.940;20.564;2022-07-21T07:57:13;98258.06;;;26.40;44.20
21753;BME280;11038;50.940;20.564;2022-07-21T07:58:46;98255.09;;;26.80;42.85
21753;BME280;11038;50.940;20.564;2022-07-21T08:00:19;98257.19;;;26.68;43.16
21753;BME280;11038;50.940;20.564;2022-07-21T08:02:11;98263.22;;;26.64;43.64
21753;BME280;11038;50.940;20.564;2022-07-21T08:03:44;98255.25;;;26.63;43.87
21753;BME280;11038;50.940;20.564;2022-07-21T08:05:16;98264.22;;;26.96;41.65
21753;BME280;11038;50.940;20.564;2022-07-21T08:06:48;98255.25;;;26.63;44.01